Astoria, Illinois
Current Conditions -  °F | °C
As of 5:15 AM on Thursday 18 Dec 2014 (Local Time) from KMQB Reporting Station
Scattered Clouds Scattered Clouds  
Wind Chill: -7°   Ceiling: Unl
Heat Index: -7°   Visibility: 10mi
Dew Point: -8°   Wind: 0mph
Humidity: 92%   Direction: NA
Pressure: 30.3"   Gusts: NA
Location:  40.23°N, 90.36°W
Report Text: KMQB 181115Z AUTO 00000KT 10SM SCT095 M06/M08 A3030 RMK AO2 T10651076
Loading
Personal Weather Stations






























Interactive Weather Map New forecast layout! Learn more

10-Day Weather Forecast

Advertisements
Track Severe Weather on mobile